Time;durP1;ratioP1;P1;durP2;ratioP2;P2;SDS_P1;SDS_P2;PMS_P1;PMS_P2;Temp;Humidity;BMP_temperature;BMP_pressure;BME280_temperature;BME280_humidity;BME280_pressure;Samples;Min_cycle;Max_cycle;Signal;HPM_P1;HPM_P2
2022/12/21 00:01:43;;;;;;;44.15;25.25;;;;;;;8.65;100.00;100899.94;5073735;28;20033;-57
2022/12/21 00:04:16;;;;;;;42.97;25.05;;;;;;;8.66;100.00;100885.88;5072816;28;20123;-57
2022/12/21 00:06:44;;;;;;;44.63;24.90;;;;;;;8.67;100.00;100895.44;5070129;28;20044;-56
2022/12/21 00:09:13;;;;;;;44.90;25.33;;;;;;;8.63;100.00;100892.97;5072212;28;20442;-57
2022/12/21 00:11:43;;;;;;;41.95;24.35;;;;;;;8.66;100.00;100896.34;5073708;28;20499;-57
2022/12/21 00:14:11;;;;;;;41.92;23.15;;;;;;;8.64;100.00;100899.06;5072882;28;20047;-54
2022/12/21 00:16:41;;;;;;;45.10;25.85;;;;;;;8.59;100.00;100899.34;5072499;28;20049;-53
2022/12/21 00:19:12;;;;;;;43.33;25.05;;;;;;;8.63;100.00;100906.09;5070706;28;20110;-54
2022/12/21 00:21:40;;;;;;;45.38;23.90;;;;;;;8.61;100.00;100904.50;5072101;28;20045;-54
2022/12/21 00:24:08;;;;;;;41.92;24.92;;;;;;;8.60;100.00;100901.03;5073630;28;20552;-53
2022/12/21 00:26:38;;;;;;;46.60;24.75;;;;;;;8.60;100.00;100902.78;5073642;28;20087;-53
2022/12/21 00:29:08;;;;;;;45.20;24.85;;;;;;;8.57;100.00;100901.19;5073525;28;20131;-51
2022/12/21 00:31:39;;;;;;;41.25;24.63;;;;;;;8.56;100.00;100902.13;5073546;28;20086;-53
2022/12/21 00:34:07;;;;;;;41.63;23.35;;;;;;;8.58;100.00;100904.66;5071858;28;20048;-54
2022/12/21 00:36:36;;;;;;;42.83;24.75;;;;;;;8.53;100.00;100901.44;5070234;28;20075;-51
2022/12/21 00:39:04;;;;;;;41.90;24.13;;;;;;;8.50;100.00;100899.00;5072401;28;20127;-53
2022/12/21 00:41:32;;;;;;;43.28;23.98;;;;;;;8.49;100.00;100894.69;5069286;28;20052;-53
2022/12/21 00:44:01;;;;;;;45.58;24.98;;;;;;;8.46;100.00;100893.06;5070912;28;20044;-54
2022/12/21 00:46:32;;;;;;;44.88;25.17;;;;;;;8.49;100.00;100889.44;5073438;28;20055;-53
2022/12/21 00:49:02;;;;;;;45.35;23.88;;;;;;;8.47;100.00;100889.53;5073467;28;20476;-51
2022/12/21 00:51:33;;;;;;;44.92;25.33;;;;;;;8.46;100.00;100893.06;5072384;28;20055;-52
2022/12/21 00:54:02;;;;;;;43.22;23.70;;;;;;;8.44;100.00;100901.00;5071622;28;20106;-52
2022/12/21 00:56:30;;;;;;;41.85;23.45;;;;;;;8.43;100.00;100901.09;5069264;28;20045;-52
2022/12/21 00:58:58;;;;;;;44.72;24.52;;;;;;;8.40;100.00;100902.09;5070989;28;20459;-54
2022/12/21 01:01:28;;;;;;;43.92;24.48;;;;;;;8.39;100.00;100912.66;5072867;28;20094;-55
2022/12/21 01:03:59;;;;;;;46.95;27.10;;;;;;;8.32;100.00;100912.16;5072946;28;20383;-53
2022/12/21 01:06:30;;;;;;;47.38;25.95;;;;;;;8.33;100.00;100911.22;5072944;28;20036;-51
2022/12/21 01:08:59;;;;;;;49.30;27.88;;;;;;;8.32;100.00;100919.16;5071658;28;20482;-54
2022/12/21 01:11:28;;;;;;;47.95;26.30;;;;;;;8.33;100.00;100921.72;5069126;28;20147;-54
2022/12/21 01:13:59;;;;;;;47.13;26.60;;;;;;;8.33;100.00;100924.34;5071451;28;20377;-53
2022/12/21 01:16:30;;;;;;;48.80;26.35;;;;;;;8.29;100.00;100923.66;5072657;28;20036;-53
2022/12/21 01:19:02;;;;;;;50.90;26.65;;;;;;;8.32;100.00;100930.50;5068835;28;20523;-53
2022/12/21 01:21:31;;;;;;;47.53;25.83;;;;;;;8.29;100.00;100928.88;5068657;28;20048;-55
2022/12/21 01:24:00;;;;;;;45.67;25.73;;;;;;;8.31;100.00;100931.41;5071801;28;20040;-54
2022/12/21 01:26:29;;;;;;;50.70;26.30;;;;;;;8.30;100.00;100924.47;5072138;28;20041;-51
2022/12/21 01:28:58;;;;;;;51.50;27.08;;;;;;;8.31;100.00;100935.81;5072290;28;20051;-54
2022/12/21 01:31:26;;;;;;;52.53;26.77;;;;;;;8.28;100.00;100935.03;5067233;28;20142;-53
2022/12/21 01:33:55;;;;;;;49.03;25.20;;;;;;;8.19;100.00;100938.16;5069751;28;20048;-54
2022/12/21 01:36:24;;;;;;;49.00;27.25;;;;;;;8.16;100.00;100946.19;5072437;28;20392;-54
2022/12/21 01:38:52;;;;;;;48.38;25.52;;;;;;;8.18;100.00;100939.09;5072057;28;20048;-53
2022/12/21 01:41:23;;;;;;;50.75;25.02;;;;;;;8.15;100.00;100939.25;5071927;28;20048;-54
2022/12/21 01:43:53;;;;;;;49.63;26.52;;;;;;;8.11;100.00;100930.72;5072277;28;20063;-52
2022/12/21 01:46:26;;;;;;;50.45;26.88;;;;;;;8.04;100.00;100939.81;5072218;28;20056;-54
2022/12/21 01:49:01;;;;;;;53.42;27.55;;;;;;;8.10;100.00;100949.16;5072290;28;20086;-54
2022/12/21 01:51:35;;;;;;;47.88;25.33;;;;;;;8.13;100.00;100943.75;5072471;28;20094;-53
2022/12/21 01:54:09;;;;;;;49.97;25.80;;;;;;;8.14;100.00;100948.06;5072189;28;20044;-54
2022/12/21 01:56:41;;;;;;;45.55;25.30;;;;;;;8.13;100.00;100954.22;5072394;28;20048;-53
2022/12/21 01:59:14;;;;;;;48.38;26.70;;;;;;;8.11;100.00;100954.31;5072549;28;20052;-54
2022/12/21 02:01:42;;;;;;;51.08;27.63;;;;;;;8.14;100.00;100953.31;5071809;28;20044;-54
2022/12/21 02:04:10;;;;;;;43.60;24.10;;;;;;;8.12;100.00;100948.13;5071828;28;20045;-52
2022/12/21 02:06:46;;;;;;;46.97;25.23;;;;;;;8.13;100.00;100951.59;5072006;28;20052;-54
2022/12/21 02:09:15;;;;;;;47.90;25.27;;;;;;;8.14;100.00;100948.06;5069107;28;20159;-51
2022/12/21 02:11:44;;;;;;;46.28;25.65;;;;;;;8.12;100.00;100948.13;5069711;28;20447;-51
2022/12/21 02:14:12;;;;;;;47.40;24.95;;;;;;;8.12;100.00;100947.28;5071950;28;20048;-51
2022/12/21 02:16:54;;;;;;;49.80;26.02;;;;;;;8.09;100.00;100950.91;5072246;28;20053;-54
2022/12/21 02:20:04;;;;;;;45.40;25.17;;;;;;;8.11;100.00;100942.97;5072010;28;20044;-51
2022/12/21 02:22:51;;;;;;;45.03;25.25;;;;;;;8.10;100.00;100936.88;5040642;28;20060;-54
2022/12/21 02:25:57;;;;;;;45.53;25.40;;;;;;;8.08;100.00;100927.41;5071124;28;20383;-52
2022/12/21 02:28:52;;;;;;;47.15;24.75;;;;;;;8.04;100.00;100928.50;5071991;28;20041;-52
2022/12/21 02:31:32;;;;;;;50.17;25.83;;;;;;;7.98;100.00;100921.81;5071967;28;20067;-54
2022/12/21 02:34:13;;;;;;;49.60;25.38;;;;;;;8.01;100.00;100921.66;5071761;28;20060;-53
2022/12/21 02:36:54;;;;;;;45.45;23.50;;;;;;;8.01;100.00;100918.19;5073782;28;20070;-49
2022/12/21 02:39:32;;;;;;;41.50;23.45;;;;;;;8.00;100.00;100913.88;5075262;28;20051;-50
2022/12/21 02:42:03;;;;;;;41.65;22.60;;;;;;;7.87;100.00;100914.53;5075044;28;20036;-51
2022/12/21 02:44:42;;;;;;;44.03;24.63;;;;;;;7.87;100.00;100919.78;5074692;28;20556;-52
2022/12/21 02:47:17;;;;;;;46.45;25.20;;;;;;;7.87;100.00;100925.00;5070609;28;20045;-51
2022/12/21 02:49:51;;;;;;;44.45;23.98;;;;;;;7.84;100.00;100921.69;5074145;28;20051;-52
2022/12/21 02:52:27;;;;;;;44.88;24.17;;;;;;;7.86;100.00;100923.31;5075457;28;20037;-53
2022/12/21 02:54:59;;;;;;;41.33;23.40;;;;;;;7.87;100.00;100921.56;5074093;28;20419;-49
2022/12/21 02:57:35;;;;;;;45.43;23.97;;;;;;;7.85;100.00;100916.38;5070927;28;20048;-52
2022/12/21 03:00:05;;;;;;;45.15;24.17;;;;;;;7.83;100.00;100913.00;5072612;28;20040;-51
2022/12/21 03:05:52;;;;;;;49.75;24.90;;;;;;;7.81;100.00;100909.59;5075208;28;20059;-52
2022/12/21 03:08:29;;;;;;;44.70;23.17;;;;;;;7.81;100.00;100914.00;5075069;28;20045;-52
2022/12/21 03:11:01;;;;;;;42.95;23.15;;;;;;;7.77;100.00;100918.53;5074854;28;20044;-54
2022/12/21 03:13:36;;;;;;;38.90;20.77;;;;;;;7.75;100.00;100918.63;5071417;28;20044;-54
2022/12/21 03:16:14;;;;;;;38.88;22.15;;;;;;;7.73;100.00;100919.63;5071582;28;20056;-54
2022/12/21 03:18:57;;;;;;;37.40;20.17;;;;;;;7.71;100.00;100921.50;5075140;28;20496;-50
2022/12/21 03:21:32;;;;;;;38.15;20.40;;;;;;;7.69;100.00;100920.72;5074480;28;20057;-54
2022/12/21 03:24:08;;;;;;;33.22;19.33;;;;;;;7.66;100.00;100918.25;5074702;28;20051;-53
2022/12/21 03:26:41;;;;;;;35.78;19.02;;;;;;;7.64;100.00;100917.50;5074999;28;20037;-53
2022/12/21 03:29:11;;;;;;;;;;;;;;;7.59;100.00;100921.22;5075356;28;20674;-53
2022/12/21 03:31:44;;;;;;;36.75;19.35;;;;;;;7.59;100.00;100913.38;5074735;28;19970;-53
2022/12/21 03:34:21;;;;;;;35.97;18.35;;;;;;;7.56;100.00;100918.72;5074614;28;20052;-54
2022/12/21 03:36:53;;;;;;;35.60;18.98;;;;;;;7.56;100.00;100910.06;5070736;28;20040;-53
2022/12/21 03:39:24;;;;;;;45.45;21.70;;;;;;;7.51;100.00;100907.69;5072845;28;20060;-53
2022/12/21 03:41:57;;;;;;;40.00;20.98;;;;;;;7.52;100.00;100911.97;5072320;28;20065;-51
2022/12/21 03:44:29;;;;;;;;;;;;;;;7.45;100.00;100908.81;5071702;28;20051;-53
2022/12/21 03:47:01;;;;;;;43.92;20.60;;;;;;;7.53;100.00;100902.38;5074005;28;19920;-54
2022/12/21 03:49:37;;;;;;;45.72;22.02;;;;;;;7.48;100.00;100897.34;5073135;28;20044;-54
2022/12/21 03:52:09;;;;;;;42.30;22.60;;;;;;;7.50;100.00;100889.41;5070668;28;20124;-52
2022/12/21 03:54:43;;;;;;;39.38;21.30;;;;;;;7.47;100.00;100902.66;5072595;28;20131;-50
2022/12/21 03:57:12;;;;;;;45.80;22.65;;;;;;;7.43;100.00;100899.34;5073695;28;20059;-53
2022/12/21 03:59:43;;;;;;;43.70;22.85;;;;;;;7.45;100.00;100900.13;5074186;28;20053;-52
2022/12/21 04:02:16;;;;;;;39.50;20.33;;;;;;;7.41;100.00;100891.56;5072793;28;20049;-48
2022/12/21 04:04:49;;;;;;;;;;;;;;;7.37;100.00;100899.66;5070966;28;20056;-50
2022/12/21 04:07:23;;;;;;;40.97;20.88;;;;;;;7.40;100.00;100899.50;5073242;28;20363;-52
2022/12/21 04:09:57;;;;;;;39.35;21.95;;;;;;;7.39;100.00;100903.03;5073703;28;20450;-48
2022/12/21 04:12:37;;;;;;;39.28;21.27;;;;;;;7.40;100.00;100909.97;5074019;28;20514;-52
2022/12/21 04:15:08;;;;;;;39.85;20.55;;;;;;;7.39;100.00;100903.03;5073495;28;20106;-52
2022/12/21 04:17:37;;;;;;;38.58;20.60;;;;;;;7.34;100.00;100892.81;5069308;28;20056;-51
2022/12/21 04:20:09;;;;;;;41.00;21.02;;;;;;;7.36;100.00;100882.28;5070322;28;20048;-51
2022/12/21 04:28:19;;;;;;;37.45;21.33;;;;;;;7.39;100.00;100874.25;5073826;28;20052;-55
2022/12/21 04:31:07;;;;;;;36.88;21.45;;;;;;;7.35;100.00;100876.22;5073886;28;20051;-56
2022/12/21 04:33:36;;;;;;;41.08;21.83;;;;;;;7.32;100.00;100884.22;5073572;28;20036;-55
2022/12/21 04:38:52;;;;;;;41.25;21.73;;;;;;;7.31;100.00;100892.13;5070035;28;20422;-56
2022/12/21 04:41:20;;;;;;;39.42;20.60;;;;;;;7.26;100.00;100887.97;5073304;28;20435;-56
2022/12/21 04:43:48;;;;;;;40.70;21.65;;;;;;;7.28;100.00;100890.53;5073492;28;20128;-56
2022/12/21 04:46:17;;;;;;;36.55;19.67;;;;;;;7.30;100.00;100893.06;5070049;28;20041;-56
2022/12/21 04:48:46;;;;;;;40.42;22.20;;;;;;;7.28;100.00;100888.75;5069530;28;20041;-56
2022/12/21 04:51:18;;;;;;;44.67;23.02;;;;;;;7.26;100.00;100893.19;5072793;28;20051;-55
2022/12/21 04:53:47;;;;;;;42.63;22.10;;;;;;;7.28;100.00;100891.38;5073484;28;20044;-54
2022/12/21 04:56:16;;;;;;;40.38;20.88;;;;;;;7.28;100.00;100891.38;5071776;28;20044;-55
2022/12/21 04:58:45;;;;;;;37.42;20.20;;;;;;;7.27;100.00;100904.53;5068415;28;20049;-55
2022/12/21 05:01:15;;;;;;;40.78;20.88;;;;;;;7.25;100.00;100907.22;5071001;28;20071;-56
2022/12/21 05:03:44;;;;;;;39.75;20.17;;;;;;;7.23;100.00;100893.38;5072639;28;20048;-55
2022/12/21 05:06:15;;;;;;;47.10;23.63;;;;;;;7.23;100.00;100890.75;5069446;28;20079;-56
2022/12/21 05:08:43;;;;;;;42.28;22.25;;;;;;;7.23;100.00;100888.13;5070207;28;20052;-56
2022/12/21 05:11:13;;;;;;;45.20;23.20;;;;;;;7.27;100.00;100878.38;5070948;28;20059;-56
2022/12/21 05:13:43;;;;;;;42.63;21.23;;;;;;;7.25;100.00;100886.31;5069207;28;20049;-57
2022/12/21 05:16:14;;;;;;;37.63;20.73;;;;;;;7.24;100.00;100886.34;5071914;28;20040;-56
2022/12/21 05:18:43;;;;;;;42.50;21.58;;;;;;;7.23;100.00;100889.91;5071734;28;20103;-55
2022/12/21 05:21:12;;;;;;;44.22;22.23;;;;;;;7.16;100.00;100886.75;5071644;28;20110;-56
2022/12/21 05:23:42;;;;;;;41.60;22.50;;;;;;;7.16;100.00;100885.88;5069173;28;20050;-52
2022/12/21 05:26:10;;;;;;;48.15;23.25;;;;;;;7.17;100.00;100888.47;5070802;28;20060;-53
2022/12/21 05:28:45;;;;;;;50.92;24.08;;;;;;;7.16;100.00;100886.75;5072456;28;20040;-54
2022/12/21 05:31:15;;;;;;;47.90;23.70;;;;;;;7.19;100.00;100883.97;5072230;28;20045;-51
2022/12/21 05:33:44;;;;;;;45.60;23.17;;;;;;;7.21;100.00;100889.13;5072667;28;20048;-51
2022/12/21 05:36:14;;;;;;;48.25;24.95;;;;;;;7.23;100.00;100884.69;5072258;28;20072;-55
2022/12/21 05:38:44;;;;;;;48.88;23.42;;;;;;;7.14;100.00;100885.13;5072441;28;20075;-57
2022/12/21 05:41:13;;;;;;;57.95;26.10;;;;;;;7.15;100.00;100879.00;5072173;28;20044;-56
2022/12/21 05:43:42;;;;;;;55.30;27.20;;;;;;;7.20;100.00;100882.19;5066846;28;20075;-56
2022/12/21 05:46:11;;;;;;;57.40;26.50;;;;;;;7.21;100.00;100879.53;5069044;28;20120;-57
2022/12/21 05:48:45;;;;;;;54.00;25.42;;;;;;;7.20;100.00;100875.22;5072123;28;20075;-57
2022/12/21 05:51:14;;;;;;;59.83;27.70;;;;;;;7.16;100.00;100867.59;5071816;28;20071;-56
2022/12/21 05:53:45;;;;;;;51.15;26.38;;;;;;;7.23;100.00;100863.75;5072271;28;20041;-55
2022/12/21 05:56:13;;;;;;;51.97;26.30;;;;;;;7.23;100.00;100867.19;5071910;28;20040;-56
2022/12/21 05:58:42;;;;;;;51.75;25.65;;;;;;;7.25;100.00;100861.88;5071166;28;20534;-57
2022/12/21 06:01:11;;;;;;;56.65;27.10;;;;;;;7.25;100.00;100859.28;5066971;28;20511;-56
2022/12/21 06:03:40;;;;;;;52.40;26.70;;;;;;;7.22;100.00;100862.06;5070833;28;20475;-56
2022/12/21 06:06:10;;;;;;;47.80;25.75;;;;;;;7.23;100.00;100863.75;5072185;28;20072;-56
2022/12/21 06:08:39;;;;;;;56.08;27.98;;;;;;;7.20;100.00;100863.88;5072246;28;20055;-52
2022/12/21 06:11:11;;;;;;;59.85;27.55;;;;;;;7.15;100.00;100861.50;5072863;28;20063;-52
2022/12/21 06:13:40;;;;;;;58.33;26.27;;;;;;;7.13;100.00;100866.00;5076410;28;20467;-51
2022/12/21 06:16:10;;;;;;;55.97;26.65;;;;;;;7.13;100.00;100863.38;5076007;28;20053;-52
2022/12/21 06:18:39;;;;;;;54.05;27.42;;;;;;;7.14;100.00;100859.81;5076216;28;20124;-56
2022/12/21 06:21:09;;;;;;;51.08;26.90;;;;;;;7.15;100.00;100863.28;5072461;28;20055;-56
2022/12/21 06:23:37;;;;;;;58.03;27.27;;;;;;;7.12;100.00;100859.06;5072224;28;20048;-56
2022/12/21 06:26:07;;;;;;;51.72;26.58;;;;;;;7.09;100.00;100846.16;5074490;28;20063;-54
2022/12/21 06:28:37;;;;;;;57.03;27.40;;;;;;;7.09;100.00;100851.38;5072370;28;20090;-56
2022/12/21 06:31:07;;;;;;;53.17;27.88;;;;;;;7.10;100.00;100851.31;5074777;28;20388;-55
2022/12/21 06:33:36;;;;;;;52.80;27.88;;;;;;;7.13;100.00;100854.66;5072412;28;20373;-56
2022/12/21 06:36:06;;;;;;;44.95;25.05;;;;;;;7.11;100.00;100852.13;5072890;28;20567;-56
2022/12/21 06:38:35;;;;;;;46.88;24.50;;;;;;;7.08;100.00;100857.53;5075983;28;20051;-55
2022/12/21 06:41:04;;;;;;;42.15;22.88;;;;;;;7.05;100.00;100855.91;5075864;28;20106;-56
2022/12/21 06:43:35;;;;;;;42.60;22.92;;;;;;;7.02;100.00;100861.31;5075754;28;20106;-56
2022/12/21 06:46:06;;;;;;;42.22;22.20;;;;;;;6.98;100.00;100862.38;5075783;28;20411;-57
2022/12/21 06:48:36;;;;;;;43.75;22.92;;;;;;;6.98;100.00;100861.50;5075729;28;20493;-56
2022/12/21 06:51:07;;;;;;;43.22;22.83;;;;;;;6.94;100.00;100860.84;5074291;28;20526;-56
2022/12/21 06:53:37;;;;;;;46.22;25.65;;;;;;;6.90;100.00;100857.50;5075489;28;20045;-56
2022/12/21 06:56:07;;;;;;;43.55;24.45;;;;;;;6.90;100.00;100857.50;5075423;28;20365;-56
2022/12/21 06:58:46;;;;;;;49.30;25.33;;;;;;;6.85;100.00;100858.66;5074759;28;20044;-56
2022/12/21 07:01:18;;;;;;;44.90;23.63;;;;;;;6.83;100.00;100869.22;5070214;28;20051;-55
2022/12/21 07:03:46;;;;;;;48.08;24.85;;;;;;;6.83;100.00;100869.22;5072870;28;20155;-55
2022/12/21 07:06:16;;;;;;;46.97;24.42;;;;;;;6.83;100.00;100874.44;5073253;28;20479;-56
2022/12/21 07:08:44;;;;;;;43.17;22.73;;;;;;;6.80;100.00;100878.97;5071340;28;20049;-56
2022/12/21 07:11:14;;;;;;;46.53;24.17;;;;;;;6.79;100.00;100882.47;5074943;28;20083;-56
2022/12/21 07:13:45;;;;;;;44.33;22.05;;;;;;;6.74;100.00;100888.78;5073823;28;20056;-54
2022/12/21 07:16:16;;;;;;;43.30;22.52;;;;;;;6.72;100.00;100889.78;5070125;28;20052;-51
2022/12/21 07:18:44;;;;;;;51.40;24.40;;;;;;;6.70;100.00;100887.25;5073680;28;20044;-54
2022/12/21 07:21:15;;;;;;;47.30;23.88;;;;;;;6.75;100.00;100900.94;5074950;28;20055;-56
2022/12/21 07:23:45;;;;;;;45.90;24.02;;;;;;;6.76;100.00;100900.03;5073626;28;20051;-57
2022/12/21 07:26:15;;;;;;;56.00;25.98;;;;;;;6.77;100.00;100896.47;5071240;28;20052;-56
2022/12/21 07:28:44;;;;;;;54.75;27.10;;;;;;;6.77;100.00;100903.47;5072056;28;20048;-50
2022/12/21 07:31:14;;;;;;;53.80;27.10;;;;;;;6.77;100.00;100891.25;5073504;28;20102;-50
2022/12/21 07:33:44;;;;;;;45.30;23.58;;;;;;;6.74;100.00;100880.09;5074122;28;20036;-53
2022/12/21 07:36:13;;;;;;;44.92;22.33;;;;;;;6.71;100.00;100883.72;5074084;28;20052;-53
2022/12/21 07:38:42;;;;;;;44.58;22.33;;;;;;;6.75;100.00;100884.41;5073686;28;20079;-52
2022/12/21 07:41:13;;;;;;;41.33;21.60;;;;;;;6.73;100.00;100888.84;5070811;28;20083;-52
2022/12/21 07:43:42;;;;;;;38.33;20.60;;;;;;;6.72;100.00;100892.38;5073167;28;20048;-53
2022/12/21 07:46:10;;;;;;;41.30;21.55;;;;;;;6.69;100.00;100895.16;5073148;28;20055;-51
2022/12/21 07:48:39;;;;;;;39.40;20.35;;;;;;;6.66;100.00;100909.22;5074589;28;20036;-53
2022/12/21 07:51:08;;;;;;;35.00;19.42;;;;;;;6.65;100.00;100901.44;5074395;28;20053;-53
2022/12/21 07:53:37;;;;;;;38.90;19.13;;;;;;;6.66;100.00;100896.16;5074519;28;20064;-53
2022/12/21 07:56:07;;;;;;;39.13;21.40;;;;;;;6.65;100.00;100889.22;5074424;28;20044;-52
2022/12/21 07:58:36;;;;;;;40.42;19.58;;;;;;;6.64;100.00;100894.53;5074473;28;20051;-53
2022/12/21 08:01:05;;;;;;;42.15;19.92;;;;;;;6.60;100.00;100897.28;5074201;28;20040;-54
2022/12/21 08:03:35;;;;;;;38.72;19.75;;;;;;;6.66;100.00;100911.00;5074164;28;20411;-53
2022/12/21 08:06:04;;;;;;;40.97;19.40;;;;;;;6.65;100.00;100909.28;5074120;28;20094;-53
2022/12/21 08:08:34;;;;;;;37.80;18.27;;;;;;;6.64;100.00;100912.81;5074227;28;20411;-53
2022/12/21 08:11:02;;;;;;;36.60;18.30;;;;;;;6.63;100.00;100921.59;5074012;28;20059;-54
2022/12/21 08:13:31;;;;;;;35.40;16.88;;;;;;;6.63;100.00;100934.66;5073914;28;20066;-54
2022/12/21 08:16:01;;;;;;;36.33;19.50;;;;;;;6.60;100.00;100930.44;5069525;28;20128;-53
2022/12/21 08:18:30;;;;;;;36.72;19.02;;;;;;;6.62;100.00;100931.19;5070787;28;20499;-53
2022/12/21 08:20:59;;;;;;;33.50;17.77;;;;;;;6.62;100.00;100936.41;5073666;28;20052;-54
2022/12/21 08:23:30;;;;;;;32.87;16.73;;;;;;;6.62;100.00;100935.56;5073593;28;20098;-52
2022/12/21 08:26:02;;;;;;;33.22;17.58;;;;;;;6.62;100.00;100938.19;5073589;28;20041;-52
2022/12/21 08:28:30;;;;;;;33.75;17.40;;;;;;;6.62;100.00;100935.56;5073531;28;20076;-50
2022/12/21 08:31:02;;;;;;;34.72;18.15;;;;;;;6.63;100.00;100934.66;5073553;28;20049;-54
2022/12/21 08:33:30;;;;;;;35.28;17.90;;;;;;;6.63;100.00;100926.81;5070989;28;20555;-53
2022/12/21 08:35:59;;;;;;;36.60;18.40;;;;;;;6.65;100.00;100928.41;5070166;28;20049;-54
2022/12/21 08:38:27;;;;;;;34.03;17.95;;;;;;;6.65;100.00;100927.59;5072802;28;20054;-52
2022/12/21 08:41:17;;;;;;;38.75;18.40;;;;;;;6.68;100.00;100920.47;5073026;28;20059;-52
2022/12/21 08:43:45;;;;;;;35.83;18.55;;;;;;;6.70;100.00;100921.22;5071351;28;20392;-53
2022/12/21 08:46:14;;;;;;;33.38;17.85;;;;;;;6.69;100.00;100923.91;5068289;28;20121;-51
2022/12/21 08:48:42;;;;;;;32.83;17.30;;;;;;;6.73;100.00;100933.28;5072210;28;20048;-52
2022/12/21 08:51:10;;;;;;;31.67;16.75;;;;;;;6.75;100.00;100924.47;5073119;28;20086;-51
2022/12/21 08:53:39;;;;;;;33.80;17.67;;;;;;;6.79;100.00;100930.41;5072492;28;20496;-51
2022/12/21 08:56:08;;;;;;;35.30;16.95;;;;;;;6.84;100.00;100927.56;5069718;28;20714;-52
2022/12/21 08:58:38;;;;;;;33.78;17.10;;;;;;;6.86;100.00;100917.88;5069991;28;20542;-55
2022/12/21 09:01:06;;;;;;;30.55;16.85;;;;;;;6.87;100.00;100925.66;5073003;28;20048;-55
2022/12/21 09:03:34;;;;;;;29.23;15.98;;;;;;;6.91;100.00;100923.72;5073162;28;20044;-55
2022/12/21 09:06:03;;;;;;;31.05;15.95;;;;;;;6.93;100.00;100924.50;5073026;28;20106;-49
2022/12/21 09:08:36;;;;;;;28.17;14.93;;;;;;;6.94;100.00;100924.41;5073045;28;20071;-52
2022/12/21 09:11:07;;;;;;;28.42;14.90;;;;;;;6.98;100.00;100924.25;5072847;28;20053;-50
2022/12/21 09:13:36;;;;;;;30.20;14.85;;;;;;;7.00;100.00;100928.50;5072991;28;20036;-49
2022/12/21 09:16:12;;;;;;;29.50;15.77;;;;;;;7.05;100.00;100938.75;5072706;28;20048;-52
2022/12/21 09:18:41;;;;;;;29.17;14.95;;;;;;;7.11;100.00;100943.66;5072277;28;20049;-53
2022/12/21 09:21:09;;;;;;;28.30;14.75;;;;;;;7.16;100.00;100940.81;5072122;28;20044;-52
2022/12/21 09:23:37;;;;;;;32.83;14.93;;;;;;;7.23;100.00;100937.84;5072251;28;20045;-51
2022/12/21 09:26:07;;;;;;;31.00;16.60;;;;;;;7.28;100.00;100938.47;5072017;28;20040;-52
2022/12/21 09:28:36;;;;;;;31.35;15.30;;;;;;;7.34;100.00;100933.84;5072159;28;20517;-50
2022/12/21 09:31:11;;;;;;;26.38;14.60;;;;;;;7.32;100.00;100933.94;5070513;28;20119;-52
2022/12/21 09:33:40;;;;;;;27.80;15.55;;;;;;;7.35;100.00;100932.91;5069240;28;20045;-49
2022/12/21 09:36:10;;;;;;;28.00;15.82;;;;;;;7.38;100.00;100935.38;5070986;28;20036;-52
2022/12/21 09:38:38;;;;;;;30.73;16.05;;;;;;;7.40;100.00;100938.75;5072397;28;20052;-50
2022/12/21 09:41:27;;;;;;;29.27;15.25;;;;;;;7.35;100.00;100938.13;5072274;28;20135;-51
2022/12/21 09:44:11;;;;;;;29.13;14.95;;;;;;;7.37;100.00;100936.31;5056079;28;20067;-52
2022/12/21 09:46:42;;;;;;;31.13;16.52;;;;;;;7.35;100.00;100931.16;5072275;28;20090;-52
2022/12/21 09:49:18;;;;;;;33.65;15.73;;;;;;;7.36;100.00;100925.00;5072107;28;20052;-51
2022/12/21 09:51:54;;;;;;;28.02;15.13;;;;;;;7.42;100.00;100914.22;5071744;28;20500;-49
2022/12/21 09:54:31;;;;;;;32.70;15.25;;;;;;;7.39;100.00;100914.38;5069144;28;20044;-51
2022/12/21 09:56:59;;;;;;;24.63;15.35;;;;;;;7.48;100.00;100926.13;5070475;28;20164;-50
2022/12/21 09:59:30;;;;;;;28.52;15.65;;;;;;;7.50;100.00;100926.91;5072748;28;20052;-51
2022/12/21 10:02:15;;;;;;;28.55;15.80;;;;;;;7.48;100.00;100927.91;5072235;28;20037;-51
2022/12/21 10:04:53;;;;;;;27.00;15.95;;;;;;;7.51;100.00;100938.22;5072211;28;20044;-50
2022/12/21 10:08:04;;;;;;;29.15;15.00;;;;;;;7.57;100.00;100928.28;5072084;28;20056;-52
2022/12/21 10:10:38;;;;;;;32.20;16.35;;;;;;;7.61;100.00;100926.38;5070878;28;20105;-51
2022/12/21 10:13:19;;;;;;;27.83;15.68;;;;;;;7.63;100.00;100921.88;5072233;28;20124;-51
2022/12/21 10:16:00;;;;;;;30.15;15.38;;;;;;;7.67;100.00;100917.34;5070969;28;20553;-52
2022/12/21 10:18:37;;;;;;;29.60;16.13;;;;;;;7.58;100.00;100916.03;5072361;28;20127;-52
2022/12/21 10:21:13;;;;;;;33.08;16.45;;;;;;;7.62;100.00;100922.81;5068292;28;20045;-51
2022/12/21 10:23:46;;;;;;;29.45;16.55;;;;;;;7.63;100.00;100915.81;5069163;28;20060;-53
2022/12/21 10:26:18;;;;;;;31.50;15.25;;;;;;;7.65;100.00;100919.19;5070144;28;20487;-53
2022/12/21 10:28:51;;;;;;;37.08;15.85;;;;;;;7.63;100.00;100921.06;5067622;28;20049;-51
2022/12/21 10:31:24;;;;;;;32.65;15.93;;;;;;;7.66;100.00;100920.88;5071355;28;20492;-52
2022/12/21 10:33:56;;;;;;;27.40;15.13;;;;;;;7.64;100.00;100918.34;5072199;28;20503;-49
2022/12/21 10:36:35;;;;;;;34.20;15.03;;;;;;;7.68;100.00;100908.56;5071851;28;20404;-50
2022/12/21 10:39:04;;;;;;;27.83;13.90;;;;;;;7.71;100.00;100908.41;5069017;28;20048;-52
2022/12/21 10:41:35;;;;;;;28.13;13.40;;;;;;;7.68;100.00;100916.44;5067787;28;20147;-50
2022/12/21 10:44:04;;;;;;;28.05;13.85;;;;;;;7.70;100.00;100907.56;5071461;28;20048;-50
2022/12/21 10:46:34;;;;;;;31.17;13.85;;;;;;;7.76;100.00;100906.41;5072054;28;20060;-48
2022/12/21 10:49:16;;;;;;;25.63;12.45;;;;;;;7.69;100.00;100898.03;5071819;28;20037;-52
2022/12/21 10:51:45;;;;;;;29.27;14.18;;;;;;;7.67;100.00;100909.50;5071294;28;20407;-52
2022/12/21 10:54:13;;;;;;;29.73;14.50;;;;;;;7.68;100.00;100909.41;5070997;28;20507;-52
2022/12/21 10:56:47;;;;;;;33.20;16.35;;;;;;;7.65;100.00;100908.72;5070682;28;20495;-53
2022/12/21 10:59:20;;;;;;;31.70;16.48;;;;;;;7.67;100.00;100910.31;5072172;28;20097;-52
2022/12/21 11:01:48;;;;;;;36.85;17.58;;;;;;;7.70;100.00;100909.31;5073376;28;20090;-53
2022/12/21 11:04:27;;;;;;;35.55;15.68;;;;;;;7.72;100.00;100910.94;5075342;28;20059;-51
2022/12/21 11:06:59;;;;;;;34.72;16.25;;;;;;;7.79;100.00;100907.06;5075121;28;20048;-52
2022/12/21 11:09:56;;;;;;;30.65;16.15;;;;;;;7.77;100.00;100894.97;5074897;28;20087;-52
2022/12/21 11:12:51;;;;;;;28.48;17.33;;;;;;;7.77;100.00;100893.22;5071764;28;20533;-50
2022/12/21 11:15:22;;;;;;;34.72;16.70;;;;;;;7.82;100.00;100889.53;5071531;28;21012;-52
2022/12/21 11:18:28;;;;;;;35.72;18.38;;;;;;;7.85;100.00;100887.56;5072511;28;20054;-50
2022/12/21 11:20:57;;;;;;;32.30;18.27;;;;;;;7.91;100.00;100886.41;5071447;28;20067;-52
2022/12/21 11:23:26;;;;;;;34.72;19.38;;;;;;;7.92;100.00;100888.97;5073751;28;20056;-51
2022/12/21 11:25:55;;;;;;;41.63;21.02;;;;;;;7.89;100.00;100885.66;5074175;28;20388;-52
2022/12/21 11:28:24;;;;;;;39.28;21.38;;;;;;;7.94;100.00;100887.09;5074503;28;20064;-52
2022/12/21 11:30:57;;;;;;;36.40;20.52;;;;;;;8.00;100.00;100888.53;5074819;28;20396;-54
2022/12/21 11:33:25;;;;;;;38.47;21.92;;;;;;;8.04;100.00;100887.44;5072175;28;20040;-54
2022/12/21 11:36:10;;;;;;;41.83;21.95;;;;;;;8.08;100.00;100886.34;5071191;28;20508;-52
2022/12/21 11:38:41;;;;;;;48.88;22.33;;;;;;;8.07;100.00;100882.06;5074626;28;20561;-52
2022/12/21 11:41:18;;;;;;;43.72;22.25;;;;;;;8.16;100.00;100887.72;5072250;28;20070;-54
2022/12/21 11:43:49;;;;;;;42.10;23.25;;;;;;;8.21;100.00;100889.16;5070911;28;20628;-52